sensor_id;sensor_type;location;lat;lon;timestamp;P1;durP1;ratioP1;P2;durP2;ratioP2
27728;SDS011;15126;42.186;24.340;2023-10-13T00:01:47;10.57;;;9.00;;
27728;SDS011;15126;42.186;24.340;2023-10-13T00:04:18;13.53;;;8.73;;
27728;SDS011;15126;42.186;24.340;2023-10-13T00:06:48;12.33;;;8.37;;
27728;SDS011;15126;42.186;24.340;2023-10-13T00:09:18;14.40;;;8.87;;
27728;SDS011;15126;42.186;24.340;2023-10-13T00:11:49;12.00;;;9.17;;
27728;SDS011;15126;42.186;24.340;2023-10-13T00:14:17;13.37;;;9.17;;
27728;SDS011;15126;42.186;24.340;2023-10-13T00:16:47;10.43;;;8.73;;
27728;SDS011;15126;42.186;24.340;2023-10-13T00:19:29;11.60;;;7.93;;
27728;SDS011;15126;42.186;24.340;2023-10-13T00:22:08;12.00;;;9.47;;
27728;SDS011;15126;42.186;24.340;2023-10-13T00:24:35;17.90;;;8.53;;
27728;SDS011;15126;42.186;24.340;2023-10-13T00:27:20;13.47;;;9.27;;
27728;SDS011;15126;42.186;24.340;2023-10-13T00:29:59;13.53;;;9.13;;
27728;SDS011;15126;42.186;24.340;2023-10-13T00:32:47;12.50;;;8.13;;
27728;SDS011;15126;42.186;24.340;2023-10-13T00:35:20;10.43;;;9.17;;
27728;SDS011;15126;42.186;24.340;2023-10-13T00:37:54;14.50;;;9.50;;
27728;SDS011;15126;42.186;24.340;2023-10-13T00:40:22;8.93;;;7.97;;
27728;SDS011;15126;42.186;24.340;2023-10-13T00:43:09;10.00;;;9.00;;
27728;SDS011;15126;42.186;24.340;2023-10-13T00:45:54;11.63;;;8.13;;
27728;SDS011;15126;42.186;24.340;2023-10-13T00:48:28;11.40;;;8.10;;
27728;SDS011;15126;42.186;24.340;2023-10-13T00:50:58;14.50;;;9.30;;
27728;SDS011;15126;42.186;24.340;2023-10-13T00:53:28;11.00;;;9.57;;
27728;SDS011;15126;42.186;24.340;2023-10-13T00:55:58;12.90;;;8.97;;
27728;SDS011;15126;42.186;24.340;2023-10-13T00:58:31;11.27;;;8.67;;
27728;SDS011;15126;42.186;24.340;2023-10-13T01:00:58;11.43;;;9.23;;
27728;SDS011;15126;42.186;24.340;2023-10-13T01:03:44;9.37;;;8.07;;
27728;SDS011;15126;42.186;24.340;2023-10-13T01:06:13;12.80;;;8.80;;
27728;SDS011;15126;42.186;24.340;2023-10-13T01:08:41;10.73;;;9.03;;
27728;SDS011;15126;42.186;24.340;2023-10-13T01:11:10;10.60;;;9.43;;
27728;SDS011;15126;42.186;24.340;2023-10-13T01:13:36;10.40;;;8.57;;
27728;SDS011;15126;42.186;24.340;2023-10-13T01:16:03;11.90;;;9.93;;
27728;SDS011;15126;42.186;24.340;2023-10-13T01:18:29;11.30;;;9.90;;
27728;SDS011;15126;42.186;24.340;2023-10-13T01:20:57;12.47;;;9.40;;
27728;SDS011;15126;42.186;24.340;2023-10-13T01:23:28;14.07;;;9.73;;
27728;SDS011;15126;42.186;24.340;2023-10-13T01:26:03;10.97;;;9.60;;
27728;SDS011;15126;42.186;24.340;2023-10-13T01:28:32;10.20;;;8.30;;
27728;SDS011;15126;42.186;24.340;2023-10-13T01:31:09;14.13;;;11.23;;
27728;SDS011;15126;42.186;24.340;2023-10-13T01:33:37;14.33;;;9.90;;
27728;SDS011;15126;42.186;24.340;2023-10-13T01:36:04;14.07;;;9.30;;
27728;SDS011;15126;42.186;24.340;2023-10-13T01:38:35;10.53;;;8.87;;
27728;SDS011;15126;42.186;24.340;2023-10-13T01:41:06;10.90;;;9.30;;
27728;SDS011;15126;42.186;24.340;2023-10-13T01:43:34;10.00;;;9.00;;
27728;SDS011;15126;42.186;24.340;2023-10-13T01:46:01;10.20;;;9.30;;
27728;SDS011;15126;42.186;24.340;2023-10-13T01:48:28;12.90;;;9.63;;
27728;SDS011;15126;42.186;24.340;2023-10-13T01:50:57;11.93;;;9.87;;
27728;SDS011;15126;42.186;24.340;2023-10-13T01:53:27;20.77;;;10.97;;
27728;SDS011;15126;42.186;24.340;2023-10-13T01:55:56;11.53;;;9.30;;
27728;SDS011;15126;42.186;24.340;2023-10-13T01:58:22;17.23;;;10.57;;
27728;SDS011;15126;42.186;24.340;2023-10-13T02:00:51;17.63;;;10.47;;
27728;SDS011;15126;42.186;24.340;2023-10-13T02:03:17;11.17;;;10.00;;
27728;SDS011;15126;42.186;24.340;2023-10-13T02:05:47;12.73;;;10.13;;
27728;SDS011;15126;42.186;24.340;2023-10-13T02:08:13;11.17;;;8.87;;
27728;SDS011;15126;42.186;24.340;2023-10-13T02:10:48;12.63;;;9.93;;
27728;SDS011;15126;42.186;24.340;2023-10-13T02:13:17;16.60;;;11.17;;
27728;SDS011;15126;42.186;24.340;2023-10-13T02:15:45;11.40;;;9.40;;
27728;SDS011;15126;42.186;24.340;2023-10-13T02:18:14;14.23;;;10.43;;
27728;SDS011;15126;42.186;24.340;2023-10-13T02:20:51;10.80;;;9.70;;
27728;SDS011;15126;42.186;24.340;2023-10-13T02:23:23;12.67;;;10.20;;
27728;SDS011;15126;42.186;24.340;2023-10-13T02:25:50;14.67;;;10.27;;
27728;SDS011;15126;42.186;24.340;2023-10-13T02:28:27;17.40;;;10.30;;
27728;SDS011;15126;42.186;24.340;2023-10-13T02:30:54;12.97;;;10.30;;
27728;SDS011;15126;42.186;24.340;2023-10-13T02:33:22;11.60;;;10.20;;
27728;SDS011;15126;42.186;24.340;2023-10-13T02:35:55;13.33;;;11.13;;
27728;SDS011;15126;42.186;24.340;2023-10-13T02:38:22;13.23;;;11.93;;
27728;SDS011;15126;42.186;24.340;2023-10-13T02:40:53;14.03;;;10.40;;
27728;SDS011;15126;42.186;24.340;2023-10-13T02:43:21;11.13;;;9.70;;
27728;SDS011;15126;42.186;24.340;2023-10-13T02:45:55;20.10;;;11.63;;
27728;SDS011;15126;42.186;24.340;2023-10-13T02:48:27;11.53;;;9.83;;
27728;SDS011;15126;42.186;24.340;2023-10-13T02:50:57;12.73;;;10.87;;
27728;SDS011;15126;42.186;24.340;2023-10-13T02:53:30;12.03;;;9.93;;
27728;SDS011;15126;42.186;24.340;2023-10-13T02:55:57;13.03;;;10.13;;
27728;SDS011;15126;42.186;24.340;2023-10-13T02:58:30;14.23;;;9.37;;
27728;SDS011;15126;42.186;24.340;2023-10-13T03:01:06;11.03;;;9.63;;
27728;SDS011;15126;42.186;24.340;2023-10-13T03:03:47;13.87;;;10.30;;
27728;SDS011;15126;42.186;24.340;2023-10-13T03:06:16;19.40;;;9.67;;
27728;SDS011;15126;42.186;24.340;2023-10-13T03:08:46;11.53;;;8.87;;
27728;SDS011;15126;42.186;24.340;2023-10-13T03:11:13;19.73;;;10.53;;
27728;SDS011;15126;42.186;24.340;2023-10-13T03:13:40;14.73;;;11.17;;
27728;SDS011;15126;42.186;24.340;2023-10-13T03:16:14;14.33;;;12.60;;
27728;SDS011;15126;42.186;24.340;2023-10-13T03:18:46;10.33;;;9.40;;
27728;SDS011;15126;42.186;24.340;2023-10-13T03:21:21;14.43;;;11.40;;
27728;SDS011;15126;42.186;24.340;2023-10-13T03:23:55;12.97;;;9.53;;
27728;SDS011;15126;42.186;24.340;2023-10-13T03:26:21;15.00;;;10.00;;
27728;SDS011;15126;42.186;24.340;2023-10-13T03:28:48;16.10;;;9.70;;
27728;SDS011;15126;42.186;24.340;2023-10-13T03:31:20;11.87;;;10.60;;
27728;SDS011;15126;42.186;24.340;2023-10-13T03:33:53;11.60;;;9.87;;
27728;SDS011;15126;42.186;24.340;2023-10-13T03:36:25;13.97;;;11.40;;
27728;SDS011;15126;42.186;24.340;2023-10-13T03:39:10;11.50;;;10.30;;
27728;SDS011;15126;42.186;24.340;2023-10-13T03:41:39;15.17;;;11.90;;
27728;SDS011;15126;42.186;24.340;2023-10-13T03:44:06;11.67;;;10.20;;
27728;SDS011;15126;42.186;24.340;2023-10-13T03:46:41;15.43;;;10.87;;
27728;SDS011;15126;42.186;24.340;2023-10-13T03:49:10;18.10;;;10.23;;
27728;SDS011;15126;42.186;24.340;2023-10-13T03:51:38;14.37;;;10.93;;
27728;SDS011;15126;42.186;24.340;2023-10-13T03:54:05;11.77;;;10.57;;
27728;SDS011;15126;42.186;24.340;2023-10-13T03:56:33;11.37;;;9.70;;
27728;SDS011;15126;42.186;24.340;2023-10-13T03:59:05;13.30;;;10.77;;
27728;SDS011;15126;42.186;24.340;2023-10-13T04:01:35;12.10;;;10.00;;
27728;SDS011;15126;42.186;24.340;2023-10-13T04:04:12;12.40;;;9.83;;
27728;SDS011;15126;42.186;24.340;2023-10-13T04:06:54;16.40;;;10.27;;
27728;SDS011;15126;42.186;24.340;2023-10-13T04:09:38;12.33;;;10.20;;
27728;SDS011;15126;42.186;24.340;2023-10-13T04:12:35;12.87;;;9.43;;
27728;SDS011;15126;42.186;24.340;2023-10-13T04:15:19;10.30;;;8.30;;
27728;SDS011;15126;42.186;24.340;2023-10-13T04:17:48;16.40;;;9.70;;
27728;SDS011;15126;42.186;24.340;2023-10-13T04:20:17;11.80;;;9.53;;
27728;SDS011;15126;42.186;24.340;2023-10-13T04:23:03;12.53;;;10.00;;
27728;SDS011;15126;42.186;24.340;2023-10-13T04:25:51;10.20;;;9.30;;
27728;SDS011;15126;42.186;24.340;2023-10-13T04:28:34;10.77;;;9.67;;
27728;SDS011;15126;42.186;24.340;2023-10-13T04:31:03;14.53;;;9.93;;
27728;SDS011;15126;42.186;24.340;2023-10-13T04:33:46;14.80;;;9.33;;
27728;SDS011;15126;42.186;24.340;2023-10-13T04:36:27;13.47;;;10.27;;
27728;SDS011;15126;42.186;24.340;2023-10-13T04:39:10;18.10;;;9.90;;
27728;SDS011;15126;42.186;24.340;2023-10-13T04:41:42;11.90;;;8.97;;
27728;SDS011;15126;42.186;24.340;2023-10-13T04:44:08;12.27;;;10.93;;
27728;SDS011;15126;42.186;24.340;2023-10-13T04:46:53;11.80;;;10.40;;
27728;SDS011;15126;42.186;24.340;2023-10-13T04:49:33;14.17;;;11.47;;
27728;SDS011;15126;42.186;24.340;2023-10-13T04:52:16;14.23;;;10.47;;
27728;SDS011;15126;42.186;24.340;2023-10-13T04:55:04;22.43;;;10.37;;
27728;SDS011;15126;42.186;24.340;2023-10-13T04:57:58;15.70;;;10.43;;
27728;SDS011;15126;42.186;24.340;2023-10-13T05:00:39;20.40;;;10.93;;
27728;SDS011;15126;42.186;24.340;2023-10-13T05:03:41;13.37;;;10.70;;
27728;SDS011;15126;42.186;24.340;2023-10-13T05:06:33;13.23;;;10.90;;
27728;SDS011;15126;42.186;24.340;2023-10-13T05:09:19;16.47;;;10.57;;
27728;SDS011;15126;42.186;24.340;2023-10-13T05:12:04;12.20;;;10.37;;
27728;SDS011;15126;42.186;24.340;2023-10-13T05:14:50;16.13;;;10.93;;
27728;SDS011;15126;42.186;24.340;2023-10-13T05:17:35;15.73;;;10.70;;
27728;SDS011;15126;42.186;24.340;2023-10-13T05:20:19;14.27;;;12.17;;
27728;SDS011;15126;42.186;24.340;2023-10-13T05:23:03;19.20;;;10.83;;
27728;SDS011;15126;42.186;24.340;2023-10-13T05:25:49;14.50;;;11.37;;
27728;SDS011;15126;42.186;24.340;2023-10-13T05:28:33;16.63;;;11.90;;
27728;SDS011;15126;42.186;24.340;2023-10-13T05:31:17;18.00;;;11.00;;
27728;SDS011;15126;42.186;24.340;2023-10-13T05:34:01;13.80;;;11.73;;
27728;SDS011;15126;42.186;24.340;2023-10-13T05:36:46;14.80;;;11.97;;
27728;SDS011;15126;42.186;24.340;2023-10-13T05:39:30;14.53;;;13.00;;
27728;SDS011;15126;42.186;24.340;2023-10-13T05:42:16;17.43;;;11.47;;
27728;SDS011;15126;42.186;24.340;2023-10-13T05:45:00;13.63;;;11.13;;
27728;SDS011;15126;42.186;24.340;2023-10-13T05:47:50;13.90;;;11.00;;
27728;SDS011;15126;42.186;24.340;2023-10-13T05:50:36;19.23;;;11.30;;
27728;SDS011;15126;42.186;24.340;2023-10-13T05:53:35;16.47;;;11.17;;
27728;SDS011;15126;42.186;24.340;2023-10-13T05:56:21;12.10;;;10.13;;
27728;SDS011;15126;42.186;24.340;2023-10-13T05:59:07;13.47;;;10.03;;
27728;SDS011;15126;42.186;24.340;2023-10-13T06:01:51;12.80;;;10.20;;
27728;SDS011;15126;42.186;24.340;2023-10-13T06:04:35;14.80;;;10.47;;
27728;SDS011;15126;42.186;24.340;2023-10-13T06:07:20;15.13;;;10.07;;
27728;SDS011;15126;42.186;24.340;2023-10-13T06:10:04;12.50;;;9.53;;
27728;SDS011;15126;42.186;24.340;2023-10-13T06:12:49;9.70;;;8.37;;
27728;SDS011;15126;42.186;24.340;2023-10-13T06:15:36;9.97;;;8.97;;
27728;SDS011;15126;42.186;24.340;2023-10-13T06:18:21;9.83;;;8.70;;
27728;SDS011;15126;42.186;24.340;2023-10-13T06:21:05;11.13;;;9.80;;
27728;SDS011;15126;42.186;24.340;2023-10-13T06:23:49;21.10;;;9.67;;
27728;SDS011;15126;42.186;24.340;2023-10-13T06:26:39;15.00;;;10.37;;
27728;SDS011;15126;42.186;24.340;2023-10-13T06:29:23;23.23;;;9.53;;
27728;SDS011;15126;42.186;24.340;2023-10-13T06:31:53;14.30;;;9.67;;
27728;SDS011;15126;42.186;24.340;2023-10-13T06:34:23;13.17;;;10.33;;
27728;SDS011;15126;42.186;24.340;2023-10-13T06:37:05;16.30;;;9.40;;
27728;SDS011;15126;42.186;24.340;2023-10-13T06:39:47;22.80;;;10.53;;
27728;SDS011;15126;42.186;24.340;2023-10-13T06:42:16;27.00;;;10.60;;
27728;SDS011;15126;42.186;24.340;2023-10-13T06:44:44;14.70;;;9.20;;
27728;SDS011;15126;42.186;24.340;2023-10-13T06:47:18;16.23;;;9.30;;
27728;SDS011;15126;42.186;24.340;2023-10-13T06:49:45;20.40;;;10.33;;
27728;SDS011;15126;42.186;24.340;2023-10-13T06:52:13;13.37;;;8.53;;
27728;SDS011;15126;42.186;24.340;2023-10-13T06:54:43;12.27;;;10.17;;
27728;SDS011;15126;42.186;24.340;2023-10-13T06:57:09;19.73;;;9.47;;
27728;SDS011;15126;42.186;24.340;2023-10-13T06:59:39;12.87;;;8.43;;
27728;SDS011;15126;42.186;24.340;2023-10-13T07:02:07;11.50;;;8.50;;
27728;SDS011;15126;42.186;24.340;2023-10-13T07:04:42;13.93;;;8.07;;
27728;SDS011;15126;42.186;24.340;2023-10-13T07:07:08;16.40;;;9.27;;
27728;SDS011;15126;42.186;24.340;2023-10-13T07:09:38;17.50;;;8.43;;
27728;SDS011;15126;42.186;24.340;2023-10-13T07:12:14;14.97;;;8.43;;
27728;SDS011;15126;42.186;24.340;2023-10-13T07:14:52;10.27;;;8.13;;
27728;SDS011;15126;42.186;24.340;2023-10-13T07:17:25;14.67;;;8.27;;
27728;SDS011;15126;42.186;24.340;2023-10-13T07:19:54;19.03;;;8.60;;
27728;SDS011;15126;42.186;24.340;2023-10-13T07:22:31;9.90;;;8.90;;
27728;SDS011;15126;42.186;24.340;2023-10-13T07:25:05;13.90;;;8.90;;
27728;SDS011;15126;42.186;24.340;2023-10-13T07:27:32;12.00;;;8.43;;
27728;SDS011;15126;42.186;24.340;2023-10-13T07:30:00;13.37;;;7.90;;
27728;SDS011;15126;42.186;24.340;2023-10-13T07:32:38;13.30;;;8.60;;
27728;SDS011;15126;42.186;24.340;2023-10-13T07:35:11;10.40;;;8.60;;
27728;SDS011;15126;42.186;24.340;2023-10-13T07:37:41;14.57;;;9.20;;
27728;SDS011;15126;42.186;24.340;2023-10-13T07:40:08;25.20;;;8.30;;
27728;SDS011;15126;42.186;24.340;2023-10-13T07:43:04;17.87;;;9.37;;
27728;SDS011;15126;42.186;24.340;2023-10-13T07:45:37;13.00;;;8.67;;
27728;SDS011;15126;42.186;24.340;2023-10-13T07:48:05;17.23;;;8.43;;
27728;SDS011;15126;42.186;24.340;2023-10-13T07:50:39;14.53;;;8.63;;
27728;SDS011;15126;42.186;24.340;2023-10-13T07:53:06;15.70;;;9.33;;
27728;SDS011;15126;42.186;24.340;2023-10-13T07:55:47;10.63;;;9.53;;
27728;SDS011;15126;42.186;24.340;2023-10-13T07:58:20;10.93;;;7.87;;
27728;SDS011;15126;42.186;24.340;2023-10-13T08:00:50;11.63;;;8.97;;
27728;SDS011;15126;42.186;24.340;2023-10-13T08:03:31;14.07;;;7.73;;
27728;SDS011;15126;42.186;24.340;2023-10-13T08:06:12;12.77;;;7.47;;
27728;SDS011;15126;42.186;24.340;2023-10-13T08:08:47;12.07;;;8.00;;
27728;SDS011;15126;42.186;24.340;2023-10-13T08:11:19;17.37;;;7.50;;
27728;SDS011;15126;42.186;24.340;2023-10-13T08:13:56;14.53;;;8.03;;
27728;SDS011;15126;42.186;24.340;2023-10-13T08:16:30;13.13;;;8.57;;
27728;SDS011;15126;42.186;24.340;2023-10-13T08:19:12;13.37;;;8.30;;
27728;SDS011;15126;42.186;24.340;2023-10-13T08:21:45;7.83;;;6.30;;
27728;SDS011;15126;42.186;24.340;2023-10-13T08:24:17;13.50;;;7.13;;
27728;SDS011;15126;42.186;24.340;2023-10-13T08:26:54;15.30;;;7.37;;
27728;SDS011;15126;42.186;24.340;2023-10-13T08:29:40;8.40;;;7.43;;
27728;SDS011;15126;42.186;24.340;2023-10-13T08:32:30;15.37;;;7.67;;
27728;SDS011;15126;42.186;24.340;2023-10-13T08:35:12;12.90;;;7.30;;
27728;SDS011;15126;42.186;24.340;2023-10-13T08:38:00;17.93;;;8.27;;
27728;SDS011;15126;42.186;24.340;2023-10-13T08:40:43;14.40;;;7.27;;
27728;SDS011;15126;42.186;24.340;2023-10-13T08:43:24;11.57;;;7.07;;
27728;SDS011;15126;42.186;24.340;2023-10-13T08:46:08;16.27;;;7.80;;
27728;SDS011;15126;42.186;24.340;2023-10-13T08:48:49;9.33;;;5.40;;
27728;SDS011;15126;42.186;24.340;2023-10-13T08:51:29;6.17;;;5.63;;
27728;SDS011;15126;42.186;24.340;2023-10-13T08:54:14;10.77;;;5.50;;
27728;SDS011;15126;42.186;24.340;2023-10-13T08:56:59;9.07;;;5.13;;
27728;SDS011;15126;42.186;24.340;2023-10-13T08:59:47;6.07;;;5.47;;
27728;SDS011;15126;42.186;24.340;2023-10-13T09:02:20;14.07;;;6.47;;
27728;SDS011;15126;42.186;24.340;2023-10-13T09:05:12;8.97;;;6.40;;
27728;SDS011;15126;42.186;24.340;2023-10-13T09:07:54;14.67;;;6.90;;
27728;SDS011;15126;42.186;24.340;2023-10-13T09:10:34;10.40;;;6.80;;
27728;SDS011;15126;42.186;24.340;2023-10-13T09:13:10;7.73;;;5.77;;
27728;SDS011;15126;42.186;24.340;2023-10-13T09:15:45;7.67;;;6.17;;
27728;SDS011;15126;42.186;24.340;2023-10-13T09:18:29;10.83;;;6.30;;
27728;SDS011;15126;42.186;24.340;2023-10-13T09:21:11;12.40;;;7.07;;
27728;SDS011;15126;42.186;24.340;2023-10-13T09:23:56;10.60;;;7.20;;
27728;SDS011;15126;42.186;24.340;2023-10-13T09:26:42;6.70;;;5.67;;
27728;SDS011;15126;42.186;24.340;2023-10-13T09:29:16;9.93;;;6.60;;
27728;SDS011;15126;42.186;24.340;2023-10-13T09:31:46;7.97;;;5.90;;
27728;SDS011;15126;42.186;24.340;2023-10-13T09:34:25;9.77;;;6.80;;
27728;SDS011;15126;42.186;24.340;2023-10-13T09:36:57;9.20;;;7.70;;
27728;SDS011;15126;42.186;24.340;2023-10-13T09:39:26;13.60;;;8.37;;
27728;SDS011;15126;42.186;24.340;2023-10-13T09:42:01;10.97;;;8.20;;
27728;SDS011;15126;42.186;24.340;2023-10-13T09:44:28;11.40;;;8.53;;
27728;SDS011;15126;42.186;24.340;2023-10-13T09:47:01;11.03;;;9.47;;
27728;SDS011;15126;42.186;24.340;2023-10-13T09:49:34;14.57;;;9.80;;
27728;SDS011;15126;42.186;24.340;2023-10-13T09:52:17;9.63;;;8.50;;
27728;SDS011;15126;42.186;24.340;2023-10-13T09:54:56;19.50;;;8.63;;
27728;SDS011;15126;42.186;24.340;2023-10-13T09:57:38;9.10;;;8.07;;
27728;SDS011;15126;42.186;24.340;2023-10-13T10:00:11;13.73;;;9.03;;
27728;SDS011;15126;42.186;24.340;2023-10-13T10:02:57;8.83;;;7.73;;
27728;SDS011;15126;42.186;24.340;2023-10-13T10:05:40;8.80;;;7.90;;
27728;SDS011;15126;42.186;24.340;2023-10-13T10:08:07;11.40;;;7.67;;
27728;SDS011;15126;42.186;24.340;2023-10-13T10:10:43;12.73;;;7.77;;
27728;SDS011;15126;42.186;24.340;2023-10-13T10:13:21;8.93;;;6.60;;
27728;SDS011;15126;42.186;24.340;2023-10-13T10:15:59;10.07;;;7.03;;
27728;SDS011;15126;42.186;24.340;2023-10-13T10:18:33;8.80;;;6.80;;
27728;SDS011;15126;42.186;24.340;2023-10-13T10:21:04;12.77;;;7.23;;
27728;SDS011;15126;42.186;24.340;2023-10-13T10:23:37;10.53;;;7.80;;
27728;SDS011;15126;42.186;24.340;2023-10-13T10:26:11;10.13;;;6.53;;
27728;SDS011;15126;42.186;24.340;2023-10-13T10:28:42;9.07;;;6.53;;
27728;SDS011;15126;42.186;24.340;2023-10-13T10:31:09;9.23;;;7.97;;
27728;SDS011;15126;42.186;24.340;2023-10-13T10:33:40;12.73;;;8.50;;
27728;SDS011;15126;42.186;24.340;2023-10-13T10:36:08;11.30;;;7.30;;
27728;SDS011;15126;42.186;24.340;2023-10-13T10:38:51;7.47;;;5.90;;
27728;SDS011;15126;42.186;24.340;2023-10-13T10:41:25;15.53;;;7.77;;
27728;SDS011;15126;42.186;24.340;2023-10-13T10:44:10;16.03;;;9.10;;
27728;SDS011;15126;42.186;24.340;2023-10-13T10:46:49;17.00;;;7.37;;
27728;SDS011;15126;42.186;24.340;2023-10-13T10:49:22;10.57;;;7.37;;
27728;SDS011;15126;42.186;24.340;2023-10-13T10:51:57;10.17;;;6.17;;
27728;SDS011;15126;42.186;24.340;2023-10-13T10:54:29;10.73;;;6.47;;
27728;SDS011;15126;42.186;24.340;2023-10-13T10:56:57;12.33;;;6.90;;
27728;SDS011;15126;42.186;24.340;2023-10-13T10:59:37;11.27;;;7.13;;
27728;SDS011;15126;42.186;24.340;2023-10-13T11:02:05;11.20;;;6.53;;
27728;SDS011;15126;42.186;24.340;2023-10-13T11:04:34;8.43;;;6.07;;
27728;SDS011;15126;42.186;24.340;2023-10-13T11:07:06;9.23;;;5.97;;
27728;SDS011;15126;42.186;24.340;2023-10-13T11:09:34;9.13;;;6.10;;
27728;SDS011;15126;42.186;24.340;2023-10-13T11:12:11;9.03;;;6.70;;
27728;SDS011;15126;42.186;24.340;2023-10-13T11:14:45;9.87;;;6.20;;
27728;SDS011;15126;42.186;24.340;2023-10-13T11:17:19;8.13;;;5.87;;
27728;SDS011;15126;42.186;24.340;2023-10-13T11:20:09;9.80;;;7.00;;
27728;SDS011;15126;42.186;24.340;2023-10-13T11:22:41;12.30;;;6.50;;
27728;SDS011;15126;42.186;24.340;2023-10-13T11:25:20;11.40;;;5.50;;
27728;SDS011;15126;42.186;24.340;2023-10-13T11:27:55;8.53;;;5.90;;
27728;SDS011;15126;42.186;24.340;2023-10-13T11:30:25;10.53;;;6.07;;
27728;SDS011;15126;42.186;24.340;2023-10-13T11:33:07;12.53;;;6.90;;
27728;SDS011;15126;42.186;24.340;2023-10-13T11:35:34;15.70;;;7.10;;
27728;SDS011;15126;42.186;24.340;2023-10-13T11:38:31;6.73;;;5.47;;
27728;SDS011;15126;42.186;24.340;2023-10-13T11:41:14;10.20;;;5.20;;
27728;SDS011;15126;42.186;24.340;2023-10-13T11:43:48;8.97;;;5.63;;
27728;SDS011;15126;42.186;24.340;2023-10-13T11:46:33;7.50;;;5.80;;
27728;SDS011;15126;42.186;24.340;2023-10-13T11:49:18;12.37;;;6.90;;
27728;SDS011;15126;42.186;24.340;2023-10-13T11:51:56;7.23;;;6.50;;
27728;SDS011;15126;42.186;24.340;2023-10-13T11:54:36;10.07;;;6.30;;
27728;SDS011;15126;42.186;24.340;2023-10-13T11:57:07;8.13;;;6.03;;
27728;SDS011;15126;42.186;24.340;2023-10-13T11:59:36;8.37;;;6.00;;
27728;SDS011;15126;42.186;24.340;2023-10-13T12:02:11;16.17;;;8.30;;
27728;SDS011;15126;42.186;24.340;2023-10-13T12:04:56;7.37;;;6.40;;
27728;SDS011;15126;42.186;24.340;2023-10-13T12:07:24;10.67;;;6.70;;
27728;SDS011;15126;42.186;24.340;2023-10-13T12:10:08;12.73;;;6.27;;
27728;SDS011;15126;42.186;24.340;2023-10-13T12:12:42;11.20;;;5.90;;
27728;SDS011;15126;42.186;24.340;2023-10-13T12:15:13;9.00;;;6.10;;
27728;SDS011;15126;42.186;24.340;2023-10-13T12:17:58;7.47;;;6.20;;
27728;SDS011;15126;42.186;24.340;2023-10-13T12:20:28;8.17;;;4.70;;
27728;SDS011;15126;42.186;24.340;2023-10-13T12:23:01;12.53;;;5.77;;
27728;SDS011;15126;42.186;24.340;2023-10-13T12:25:40;6.80;;;4.07;;
27728;SDS011;15126;42.186;24.340;2023-10-13T12:28:25;7.90;;;4.23;;
27728;SDS011;15126;42.186;24.340;2023-10-13T12:30:56;7.73;;;5.33;;
27728;SDS011;15126;42.186;24.340;2023-10-13T12:33:37;9.27;;;5.20;;
27728;SDS011;15126;42.186;24.340;2023-10-13T12:36:06;6.83;;;5.07;;
27728;SDS011;15126;42.186;24.340;2023-10-13T12:38:34;10.37;;;5.43;;
27728;SDS011;15126;42.186;24.340;2023-10-13T12:41:39;8.20;;;5.67;;
27728;SDS011;15126;42.186;24.340;2023-10-13T12:44:23;9.53;;;5.60;;
27728;SDS011;15126;42.186;24.340;2023-10-13T12:47:08;9.60;;;5.57;;
27728;SDS011;15126;42.186;24.340;2023-10-13T12:49:54;11.70;;;5.07;;
27728;SDS011;15126;42.186;24.340;2023-10-13T12:52:39;12.13;;;5.67;;
27728;SDS011;15126;42.186;24.340;2023-10-13T12:55:10;8.47;;;5.70;;
27728;SDS011;15126;42.186;24.340;2023-10-13T12:57:41;9.33;;;6.00;;
27728;SDS011;15126;42.186;24.340;2023-10-13T13:00:10;9.73;;;5.20;;
27728;SDS011;15126;42.186;24.340;2023-10-13T13:02:49;8.63;;;5.27;;
27728;SDS011;15126;42.186;24.340;2023-10-13T13:05:22;10.87;;;5.03;;
27728;SDS011;15126;42.186;24.340;2023-10-13T13:07:56;7.40;;;4.67;;
27728;SDS011;15126;42.186;24.340;2023-10-13T13:10:23;6.43;;;4.63;;
27728;SDS011;15126;42.186;24.340;2023-10-13T13:13:00;6.67;;;4.63;;
27728;SDS011;15126;42.186;24.340;2023-10-13T13:15:29;8.80;;;5.07;;
27728;SDS011;15126;42.186;24.340;2023-10-13T13:17:56;11.87;;;5.27;;
27728;SDS011;15126;42.186;24.340;2023-10-13T13:20:24;8.30;;;4.37;;
27728;SDS011;15126;42.186;24.340;2023-10-13T13:22:55;7.27;;;3.97;;
27728;SDS011;15126;42.186;24.340;2023-10-13T13:25:28;11.03;;;6.13;;
27728;SDS011;15126;42.186;24.340;2023-10-13T13:27:59;8.00;;;5.33;;
27728;SDS011;15126;42.186;24.340;2023-10-13T13:30:30;5.13;;;4.60;;
27728;SDS011;15126;42.186;24.340;2023-10-13T13:32:59;6.07;;;4.90;;
27728;SDS011;15126;42.186;24.340;2023-10-13T13:35:30;5.73;;;4.67;;
27728;SDS011;15126;42.186;24.340;2023-10-13T13:38:00;8.60;;;5.20;;
27728;SDS011;15126;42.186;24.340;2023-10-13T13:40:36;10.47;;;4.30;;
27728;SDS011;15126;42.186;24.340;2023-10-13T13:43:06;6.70;;;5.20;;
27728;SDS011;15126;42.186;24.340;2023-10-13T13:45:40;12.47;;;6.10;;
27728;SDS011;15126;42.186;24.340;2023-10-13T13:48:10;7.20;;;4.63;;
27728;SDS011;15126;42.186;24.340;2023-10-13T13:50:44;10.93;;;5.57;;
27728;SDS011;15126;42.186;24.340;2023-10-13T13:53:17;8.20;;;4.33;;
27728;SDS011;15126;42.186;24.340;2023-10-13T13:55:52;8.30;;;4.57;;
27728;SDS011;15126;42.186;24.340;2023-10-13T13:58:19;9.43;;;4.70;;
27728;SDS011;15126;42.186;24.340;2023-10-13T14:00:46;7.47;;;5.33;;
27728;SDS011;15126;42.186;24.340;2023-10-13T14:03:14;19.33;;;5.80;;
27728;SDS011;15126;42.186;24.340;2023-10-13T14:05:57;9.63;;;4.57;;
27728;SDS011;15126;42.186;24.340;2023-10-13T14:08:25;7.93;;;4.97;;
27728;SDS011;15126;42.186;24.340;2023-10-13T14:10:52;8.03;;;4.03;;
27728;SDS011;15126;42.186;24.340;2023-10-13T14:13:37;5.63;;;4.27;;
27728;SDS011;15126;42.186;24.340;2023-10-13T14:16:14;10.23;;;4.70;;
27728;SDS011;15126;42.186;24.340;2023-10-13T14:18:41;7.27;;;4.93;;
27728;SDS011;15126;42.186;24.340;2023-10-13T14:21:10;5.60;;;4.00;;
27728;SDS011;15126;42.186;24.340;2023-10-13T14:23:42;12.83;;;4.40;;
27728;SDS011;15126;42.186;24.340;2023-10-13T14:26:13;7.03;;;3.73;;
27728;SDS011;15126;42.186;24.340;2023-10-13T14:28:45;3.67;;;3.03;;
27728;SDS011;15126;42.186;24.340;2023-10-13T14:31:17;8.17;;;3.90;;
27728;SDS011;15126;42.186;24.340;2023-10-13T14:33:45;4.60;;;3.40;;
27728;SDS011;15126;42.186;24.340;2023-10-13T14:36:14;6.27;;;3.53;;
27728;SDS011;15126;42.186;24.340;2023-10-13T14:38:45;8.03;;;3.83;;
27728;SDS011;15126;42.186;24.340;2023-10-13T14:41:17;5.43;;;4.00;;
27728;SDS011;15126;42.186;24.340;2023-10-13T14:43:45;10.97;;;4.57;;
27728;SDS011;15126;42.186;24.340;2023-10-13T14:46:14;8.43;;;4.97;;
27728;SDS011;15126;42.186;24.340;2023-10-13T14:48:43;12.67;;;4.90;;
27728;SDS011;15126;42.186;24.340;2023-10-13T14:51:15;15.87;;;5.80;;
27728;SDS011;15126;42.186;24.340;2023-10-13T14:53:45;13.27;;;5.90;;
27728;SDS011;15126;42.186;24.340;2023-10-13T14:56:13;9.57;;;4.93;;
27728;SDS011;15126;42.186;24.340;2023-10-13T14:58:40;17.70;;;5.23;;
27728;SDS011;15126;42.186;24.340;2023-10-13T15:01:16;10.30;;;5.93;;
27728;SDS011;15126;42.186;24.340;2023-10-13T15:03:45;14.80;;;6.37;;
27728;SDS011;15126;42.186;24.340;2023-10-13T15:06:21;9.13;;;5.83;;
27728;SDS011;15126;42.186;24.340;2023-10-13T15:08:51;14.33;;;6.33;;